Time;durP1;ratioP1;P1;durP2;ratioP2;P2;SDS_P1;SDS_P2;PMS_P1;PMS_P2;Temp;Humidity;BMP_temperature;BMP_pressure;BME280_temperature;BME280_humidity;BME280_pressure;Samples;Min_cycle;Max_cycle;Signal;HPM_P1;HPM_P2
2024/02/28 09:48:30;;;;;;;;;;;;;;;14.87;87.36;100496.69;4944155;29;1706;-65
2024/02/28 09:50:57;;;;;;;;;;;;;;;14.83;89.92;100493.16;4956676;29;881;-65
2024/02/28 09:53:24;;;;;;;;;;;;;;;14.96;89.31;100488.66;4956718;29;839;-65
2024/02/28 09:55:52;;;;;;;;;;;;;;;14.87;87.44;100488.34;4956471;29;1965;-65
2024/02/28 09:58:22;;;;;;;;;;;;;;;14.85;90.44;100491.56;4956623;29;836;-66
2024/02/28 10:00:49;;;;;;;;;;;;;;;15.10;92.64;100484.88;4956714;29;850;-66
2024/02/28 10:03:19;;;;;;;;;;;;;;;15.23;90.83;100483.13;4955822;28;936;-66
2024/02/28 10:05:47;;;;;;;;;;;;;;;15.33;87.09;100486.97;4939136;29;1238;-66
2024/02/28 10:08:14;;;;;;;;;;;;;;;15.51;85.88;100481.97;4956396;29;815;-66
2024/02/28 10:10:47;;;;;;;;;;;;;;;15.52;89.14;100474.38;4956202;29;810;-66
2024/02/28 10:13:13;;;;;;;;;;;;;;;15.56;85.71;100477.91;4956258;29;811;-67
2024/02/28 10:15:40;;;;;;;;;;;;;;;15.65;84.20;100469.03;4956509;29;1886;-66
2024/02/28 10:18:06;;;;;;;;;;;;;;;15.77;82.37;100471.25;4956146;29;815;-66
2024/02/28 10:20:33;;;;;;;;;;;;;;;15.65;83.30;100471.81;4956135;29;986;-66
2024/02/28 10:23:03;;;;;;;;;;;;;;;15.65;83.96;100467.03;4956021;29;827;-67
2024/02/28 10:25:30;;;;;;;;;;;;;;;15.89;83.68;100464.28;4956042;29;875;-66
2024/02/28 10:28:04;;;;;;;;;;;;;;;15.83;82.81;100458.44;4955963;29;895;-66
2024/02/28 10:30:31;;;;;;;;;;;;;;;15.59;84.04;100465.91;4955956;29;843;-67
2024/02/28 10:32:57;;;;;;;;;;;;;;;15.66;84.47;100460.25;4955831;29;859;-66
2024/02/28 10:35:25;;;;;;;;;;;;;;;15.92;84.65;100455.09;4956005;29;1936;-66
2024/02/28 10:37:52;;;;;;;;;;;;;;;16.18;79.78;100458.25;4956039;29;807;-66
2024/02/28 10:40:21;;;;;;;;;;;;;;;16.42;80.84;100451.41;4955741;29;900;-67
2024/02/28 10:42:48;;;;;;;;;;;;;;;16.50;79.88;100443.72;4955805;29;792;-67
2024/02/28 10:45:17;;;;;;;;;;;;;;;16.26;80.00;100440.97;4938241;29;1199;-67
2024/02/28 10:47:44;;;;;;;;;;;;;;;15.95;81.37;100445.88;4955709;29;816;-66
2024/02/28 10:50:10;;;;;;;;;;;;;;;16.21;81.80;100437.88;4955524;29;1325;-66
2024/02/28 10:52:42;;;;;;;;;;;;;;;16.69;79.53;100434.56;4955557;29;871;-67
2024/02/28 10:55:08;;;;;;;;;;;;;;;16.68;78.07;100429.41;4955369;29;1966;-66
2024/02/28 10:57:36;;;;;;;;;;;;;;;16.63;76.33;100424.34;4955873;29;819;-66
2024/02/28 11:00:05;;;;;;;;;;;;;;;16.69;78.40;100419.81;4955359;29;815;-67
2024/02/28 11:02:34;;;;;;;;;;;;;;;16.76;77.09;100416.88;4955389;29;879;-67
2024/02/28 11:05:01;;;;;;;;;;;;;;;16.65;78.24;100411.53;4955310;29;883;-67
2024/02/28 11:07:30;;;;;;;;;;;;;;;16.61;76.37;100419.16;4955227;29;847;-66
2024/02/28 11:09:57;;;;;;;;;;;;;;;16.53;76.64;100417.72;4955341;29;862;-66
2024/02/28 11:12:27;;;;;;;;;;;;;;;16.83;77.29;100418.75;4937981;29;1320;-66
2024/02/28 11:15:01;;;;;;;;;;;;;;;16.87;74.87;100417.47;4954051;28;1887;-66
2024/02/28 11:17:29;;;;;;;;;;;;;;;17.06;76.52;100417.88;4955040;29;851;-67
2024/02/28 11:19:56;;;;;;;;;;;;;;;16.78;77.83;100408.88;4955358;29;863;-67
2024/02/28 11:22:23;;;;;;;;;;;;;;;16.79;79.93;100404.88;4955005;29;902;-67
2024/02/28 11:24:53;;;;;;;;;;;;;;;16.99;75.44;100398.50;4954993;29;812;-67
2024/02/28 11:27:20;;;;;;;;;;;;;;;17.18;73.85;100403.25;4955001;29;839;-68
2024/02/28 11:29:46;;;;;;;;;;;;;;;17.32;72.87;100402.13;4955100;29;859;-64
2024/02/28 11:32:14;;;;;;;;;;;;;;;17.53;74.50;100386.88;4955039;29;847;-64
2024/02/28 11:34:41;;;;;;;;;;;;;;;17.57;73.98;100393.16;4954842;29;1965;-66
2024/02/28 11:37:09;;;;;;;;;;;;;;;17.76;71.70;100380.31;4954782;29;874;-65
2024/02/28 11:39:36;;;;;;;;;;;;;;;17.66;70.77;100387.75;4954660;29;832;-66
2024/02/28 11:42:09;;;;;;;;;;;;;;;17.72;70.49;100382.41;4954752;29;847;-66
2024/02/28 11:44:36;;;;;;;;;;;;;;;17.69;72.15;100386.09;4954649;29;840;-66
2024/02/28 11:47:03;;;;;;;;;;;;;;;17.49;72.25;100386.16;4955036;29;906;-66
2024/02/28 11:49:32;;;;;;;;;;;;;;;17.75;72.84;100387.13;4954727;29;1492;-66
2024/02/28 11:51:59;;;;;;;;;;;;;;;17.91;71.56;100380.78;4954596;29;811;-66
2024/02/28 11:54:26;;;;;;;;;;;;;;;17.80;69.91;100377.44;4954414;29;1903;-66
2024/02/28 11:56:52;;;;;;;;;;;;;;;17.69;70.35;100386.88;4954505;29;859;-63
2024/02/28 11:59:19;;;;;;;;;;;;;;;17.69;71.57;100378.50;4954468;29;839;-61
2024/02/28 12:01:46;;;;;;;;;;;;;;;17.84;69.17;100378.94;4954418;29;842;-61
2024/02/28 12:04:13;;;;;;;;;;;;;;;17.74;70.81;100372.38;4954468;29;807;-60
2024/02/28 12:06:40;;;;;;;;;;;;;;;17.97;69.43;100373.44;4954177;29;816;-60
2024/02/28 12:09:14;;;;;;;;;;;;;;;18.06;68.92;100373.56;4954049;29;808;-60
2024/02/28 12:11:41;;;;;;;;;;;;;;;18.20;67.80;100369.63;4954023;29;815;-60
2024/02/28 12:14:09;;;;;;;;;;;;;;;18.60;67.56;100368.50;4954090;29;800;-61
2024/02/28 12:16:39;;;;;;;;;;;;;;;18.68;66.25;100367.84;4953879;29;1957;-61
2024/02/28 12:19:13;;;;;;;;;;;;;;;18.49;66.50;100364.00;4954072;29;855;-60
2024/02/28 12:21:41;;;;;;;;;;;;;;;18.49;66.71;100368.81;4953942;29;839;-60
2024/02/28 12:24:11;;;;;;;;;;;;;;;18.65;66.20;100370.75;4953916;29;839;-61
2024/02/28 12:26:40;;;;;;;;;;;;;;;18.64;65.91;100367.16;4953490;28;820;-60
2024/02/28 12:29:07;;;;;;;;;;;;;;;18.70;65.77;100370.22;4954424;29;831;-60
2024/02/28 12:31:34;;;;;;;;;;;;;;;18.76;65.91;100374.03;4953855;29;1177;-60
2024/02/28 12:34:01;;;;;;;;;;;;;;;18.74;65.95;100373.69;4953668;29;863;-60
2024/02/28 12:36:27;;;;;;;;;;;;;;;18.43;65.23;100371.38;4953749;29;1899;-60
2024/02/28 12:38:57;;;;;;;;;;;;;;;18.52;66.43;100362.31;4953809;29;1077;-60
2024/02/28 12:41:24;;;;;;;;;;;;;;;18.73;67.53;100366.50;4953851;29;851;-60
2024/02/28 12:43:50;;;;;;;;;;;;;;;18.82;64.79;100360.28;4953892;29;824;-60
2024/02/28 12:46:17;;;;;;;;;;;;;;;18.98;63.83;100360.19;4954396;29;1017;-60
2024/02/28 12:48:46;;;;;;;;;;;;;;;19.40;62.67;100359.31;4953671;29;1217;-61
2024/02/28 12:51:31;;;;;;;;;;;;;;;19.44;62.51;100345.94;4953641;29;839;-60
2024/02/28 12:53:58;;;;;;;;;;;;;;;19.58;61.71;100351.09;4953828;29;1188;-60
2024/02/28 12:56:24;;;;;;;;;;;;;;;19.71;61.52;100353.88;4953488;29;1906;-60
2024/02/28 12:58:50;;;;;;;;;;;;;;;19.65;60.44;100339.66;4953571;29;824;-60
2024/02/28 13:01:17;;;;;;;;;;;;;;;19.57;61.31;100347.50;4953537;29;839;-60
2024/02/28 13:03:43;;;;;;;;;;;;;;;20.06;61.11;100342.69;4953480;29;803;-60
2024/02/28 13:06:10;;;;;;;;;;;;;;;20.45;58.14;100334.84;4952169;29;1473;-60
2024/02/28 13:08:37;;;;;;;;;;;;;;;20.65;57.11;100320.50;4953465;29;891;-61
2024/02/28 13:11:03;;;;;;;;;;;;;;;20.32;57.26;100329.31;4953387;29;872;-61
2024/02/28 13:13:30;;;;;;;;;;;;;;;20.13;57.19;100329.16;4953486;29;911;-62
2024/02/28 13:15:56;;;;;;;;;;;;;;;19.70;58.84;100330.69;4953248;29;1887;-60
2024/02/28 13:18:22;;;;;;;;;;;;;;;19.23;59.34;100339.81;4953501;29;804;-59
2024/02/28 13:20:48;;;;;;;;;;;;;;;19.14;59.89;100336.91;4953298;29;848;-59
2024/02/28 13:23:14;;;;;;;;;;;;;;;18.82;61.51;100335.06;4953653;29;804;-59
2024/02/28 13:25:41;;;;;;;;;;;;;;;18.43;63.60;100332.19;4953350;29;839;-59
2024/02/28 13:28:08;;;;;;;;;;;;;;;18.27;64.94;100329.47;4953337;29;930;-59
2024/02/28 13:30:36;;;;;;;;;;;;;;;18.34;66.53;100329.25;4953218;29;807;-59
2024/02/28 13:33:03;;;;;;;;;;;;;;;18.24;65.53;100335.94;4953278;29;890;-59
2024/02/28 13:35:30;;;;;;;;;;;;;;;18.14;66.11;100327.41;4953140;29;1886;-59
2024/02/28 13:38:00;;;;;;;;;;;;;;;17.87;67.29;100327.72;4954217;28;819;-59
2024/02/28 13:40:30;;;;;;;;;;;;;;;17.47;69.32;100327.13;4956810;29;878;-58
2024/02/28 13:42:56;;;;;;;;;;;;;;;17.20;72.48;100322.59;4956735;29;894;-59
2024/02/28 13:45:22;;;;;;;;;;;;;;;16.64;76.34;100319.84;4956711;29;890;-59
2024/02/28 13:47:49;;;;;;;;;;;;;;;16.32;81.26;100322.09;4956591;29;898;-59
2024/02/28 13:50:15;;;;;;;;;;;;;;;16.13;81.94;100320.09;4956383;29;1271;-59
2024/02/28 13:52:41;;;;;;;;;;;;;;;15.95;84.45;100326.00;4956681;29;799;-59
2024/02/28 13:55:09;;;;;;;;;;;;;;;15.80;85.02;100324.69;4956399;29;1911;-59
2024/02/28 13:57:35;;;;;;;;;;;;;;;15.89;86.21;100317.34;4956407;29;828;-59
2024/02/28 14:02:47;;;;;;;;;;;;;;;16.36;85.25;100322.00;4956473;29;681;-58
2024/02/28 14:05:13;;;;;;;;;;;;;;;16.68;80.53;100328.94;4956353;29;896;-59
2024/02/28 14:07:40;;;;;;;;;;;;;;;16.86;79.14;100320.22;4956332;29;956;-58
2024/02/28 14:10:07;;;;;;;;;;;;;;;16.85;78.77;100330.56;4955027;29;1400;-59
2024/02/28 14:12:33;;;;;;;;;;;;;;;16.99;78.67;100332.28;4956166;29;855;-59
2024/02/28 14:15:00;;;;;;;;;;;;;;;17.14;76.84;100332.72;4956109;29;1910;-59
2024/02/28 14:17:26;;;;;;;;;;;;;;;17.23;76.50;100335.69;4956413;29;843;-59
2024/02/28 14:19:53;;;;;;;;;;;;;;;17.04;76.95;100334.53;4956476;29;879;-59
2024/02/28 14:22:19;;;;;;;;;;;;;;;16.91;74.28;100334.44;4956041;29;831;-59
2024/02/28 14:24:46;;;;;;;;;;;;;;;16.93;75.12;100334.78;4956008;29;863;-59
2024/02/28 14:27:13;;;;;;;;;;;;;;;16.93;73.65;100326.41;4954664;29;1393;-59
2024/02/28 14:29:39;;;;;;;;;;;;;;;16.93;74.83;100331.97;4955915;29;883;-58
2024/02/28 14:32:06;;;;;;;;;;;;;;;16.74;75.00;100327.97;4955943;29;831;-59
2024/02/28 14:34:33;;;;;;;;;;;;;;;16.64;75.20;100342.16;4955723;29;1941;-58
2024/02/28 14:37:00;;;;;;;;;;;;;;;16.73;77.86;100334.03;4955835;29;855;-59
2024/02/28 14:39:27;;;;;;;;;;;;;;;16.53;79.67;100334.81;4955725;29;855;-59
2024/02/28 14:41:54;;;;;;;;;;;;;;;16.08;81.58;100340.09;4955685;29;863;-59
2024/02/28 14:44:21;;;;;;;;;;;;;;;15.67;85.18;100346.78;4955701;29;859;-59
2024/02/28 14:46:47;;;;;;;;;;;;;;;15.69;85.68;100345.16;4955934;29;890;-58
2024/02/28 14:49:16;;;;;;;;;;;;;;;15.54;85.68;100348.59;4955089;28;1367;-58
2024/02/28 14:51:48;;;;;;;;;;;;;;;15.33;86.13;100353.31;4955583;29;827;-59
2024/02/28 14:54:15;;;;;;;;;;;;;;;15.07;88.94;100352.91;4955550;29;832;-59
2024/02/28 14:56:42;;;;;;;;;;;;;;;14.76;90.47;100354.13;4955307;29;1981;-59
2024/02/28 14:59:08;;;;;;;;;;;;;;;14.55;93.08;100355.16;4954162;29;1431;-58
2024/02/28 15:01:35;;;;;;;;;;;;;;;14.27;94.78;100357.06;4955257;29;863;-58
2024/02/28 15:04:02;;;;;;;;;;;;;;;14.15;95.95;100355.63;4955240;29;812;-58
2024/02/28 15:06:28;;;;;;;;;;;;;;;13.95;98.29;100355.41;4955231;29;848;-58
2024/02/28 15:08:55;;;;;;;;;;;;;;;13.67;100.00;100360.03;4955116;29;867;-59
2024/02/28 15:11:22;;;;;;;;;;;;;;;13.55;100.00;100365.28;4955221;29;886;-58
2024/02/28 15:13:48;;;;;;;;;;;;;;;13.26;100.00;100362.72;4954978;29;864;-58
2024/02/28 15:16:16;;;;;;;;;;;;;;;13.06;100.00;100368.00;4954990;29;1883;-58
2024/02/28 15:18:44;;;;;;;;;;;;;;;12.81;100.00;100370.91;4954906;29;885;-58
2024/02/28 15:21:11;;;;;;;;;;;;;;;12.48;100.00;100366.69;4955017;29;859;-58
2024/02/28 15:23:37;;;;;;;;;;;;;;;12.21;100.00;100367.19;4955105;29;808;-58
2024/02/28 15:26:04;;;;;;;;;;;;;;;11.98;100.00;100364.84;4955123;29;879;-58
2024/02/28 15:28:31;;;;;;;;;;;;;;;11.72;100.00;100360.50;4954828;29;791;-58
2024/02/28 15:30:58;;;;;;;;;;;;;;;11.33;100.00;100369.56;4954720;29;867;-58
2024/02/28 15:33:24;;;;;;;;;;;;;;;10.94;100.00;100365.53;4954730;29;914;-58
2024/02/28 15:35:51;;;;;;;;;;;;;;;10.53;100.00;100371.34;4954564;29;1894;-58
2024/02/28 15:38:17;;;;;;;;;;;;;;;10.18;100.00;100374.69;4954674;29;883;-58
2024/02/28 15:40:44;;;;;;;;;;;;;;;9.85;100.00;100370.91;4953259;29;2387;-58
2024/02/28 15:43:10;;;;;;;;;;;;;;;9.49;100.00;100376.16;4954574;29;840;-58
2024/02/28 15:45:42;;;;;;;;;;;;;;;9.16;100.00;100375.06;4954491;29;1012;-57
2024/02/28 15:48:08;;;;;;;;;;;;;;;8.82;100.00;100373.53;4954494;29;820;-57
2024/02/28 15:50:36;;;;;;;;;;;;;;;8.50;100.00;100369.22;4954248;29;1468;-57
2024/02/28 15:53:04;;;;;;;;;;;;;;;8.33;100.00;100375.25;4954398;29;800;-58
2024/02/28 15:55:30;;;;;;;;;;;;;;;8.24;100.00;100372.78;4954350;29;1911;-58
2024/02/28 15:57:57;;;;;;;;;;;;;;;8.17;100.00;100369.91;4954245;29;818;-58
2024/02/28 16:00:23;;;;;;;;;;;;;;;8.05;100.00;100375.66;4953854;28;985;-58
2024/02/28 16:02:50;;;;;;;;;;;;;;;7.81;100.00;100376.84;4954343;29;851;-58
2024/02/28 16:05:16;;;;;;;;;;;;;;;7.54;100.00;100374.09;4954142;29;824;-59
2024/02/28 16:07:43;;;;;;;;;;;;;;;7.33;100.00;100375.31;4954257;29;799;-59
2024/02/28 16:10:10;;;;;;;;;;;;;;;7.13;100.00;100374.56;4954102;29;822;-59
2024/02/28 16:12:36;;;;;;;;;;;;;;;6.96;100.00;100377.78;4954097;29;851;-59
2024/02/28 16:15:03;;;;;;;;;;;;;;;6.82;100.00;100375.56;4953988;29;1955;-59
2024/02/28 16:17:31;;;;;;;;;;;;;;;6.70;100.00;100373.78;4954089;29;816;-59
2024/02/28 16:19:58;;;;;;;;;;;;;;;6.61;100.00;100364.94;4954293;29;894;-58
2024/02/28 16:22:25;;;;;;;;;;;;;;;6.48;100.00;100372.53;4953986;29;859;-59
2024/02/28 16:24:52;;;;;;;;;;;;;;;6.34;100.00;100375.00;4953932;29;844;-59
2024/02/28 16:27:18;;;;;;;;;;;;;;;6.20;100.00;100383.69;4953818;29;816;-59
2024/02/28 16:29:45;;;;;;;;;;;;;;;6.11;100.00;100388.59;4953896;29;800;-59
2024/02/28 16:32:12;;;;;;;;;;;;;;;6.05;100.00;100395.50;4953877;29;890;-59
2024/02/28 16:34:40;;;;;;;;;;;;;;;5.95;100.00;100396.06;4953747;29;1882;-59
2024/02/28 16:37:06;;;;;;;;;;;;;;;5.87;100.00;100395.88;4953859;29;868;-59
2024/02/28 16:39:33;;;;;;;;;;;;;;;5.79;100.00;100396.06;4953830;29;815;-59
2024/02/28 16:41:59;;;;;;;;;;;;;;;5.73;100.00;100410.03;4953718;29;831;-59
2024/02/28 16:44:26;;;;;;;;;;;;;;;5.67;100.00;100408.69;4954016;29;792;-59
2024/02/28 16:46:53;;;;;;;;;;;;;;;5.64;100.00;100411.38;4953998;29;1006;-59
2024/02/28 16:49:20;;;;;;;;;;;;;;;5.59;100.00;100412.44;4953404;29;1349;-59
2024/02/28 16:51:47;;;;;;;;;;;;;;;5.52;100.00;100410.28;4953748;29;852;-59
2024/02/28 16:54:14;;;;;;;;;;;;;;;5.44;100.00;100418.69;4936490;29;1496;-59
2024/02/28 16:56:40;;;;;;;;;;;;;;;5.38;100.00;100417.38;4953543;29;1911;-59
2024/02/28 16:59:09;;;;;;;;;;;;;;;5.30;100.00;100421.88;4953640;29;808;-59
2024/02/28 17:01:35;;;;;;;;;;;;;;;5.25;100.00;100422.13;4936343;29;1210;-59
2024/02/28 17:04:02;;;;;;;;;;;;;;;5.20;100.00;100422.38;4953580;29;877;-59
2024/02/28 17:06:28;;;;;;;;;;;;;;;5.14;100.00;100426.50;4953472;29;851;-58
2024/02/28 17:08:55;;;;;;;;;;;;;;;5.13;100.00;100416.72;4953535;29;827;-59
2024/02/28 17:11:22;;;;;;;;;;;;;;;5.13;100.00;100420.25;4953664;28;860;-59
2024/02/28 17:13:48;;;;;;;;;;;;;;;5.08;100.00;100417.78;4957387;29;896;-58
2024/02/28 17:16:17;;;;;;;;;;;;;;;5.06;100.00;100423.59;4957251;29;1886;-59
2024/02/28 17:18:43;;;;;;;;;;;;;;;5.06;100.00;100417.31;4957234;29;878;-59
2024/02/28 17:21:10;;;;;;;;;;;;;;;5.00;100.00;100425.00;4957246;29;840;-59
2024/02/28 17:23:37;;;;;;;;;;;;;;;4.98;100.00;100423.75;4957127;29;812;-59
2024/02/28 17:26:04;;;;;;;;;;;;;;;5.01;100.00;100421.09;4957442;29;827;-59
2024/02/28 17:28:29;;;;;;;;;;;;;;;5.11;100.00;100417.84;4957084;29;851;-59
2024/02/28 17:30:56;;;;;;;;;;;;;;;5.18;100.00;100419.19;4957102;29;849;-59
2024/02/28 17:33:25;;;;;;;;;;;;;;;5.14;100.00;100419.09;4956920;29;851;-59
2024/02/28 17:35:52;;;;;;;;;;;;;;;5.19;100.00;100426.28;4939636;29;1953;-59
2024/02/28 17:38:19;;;;;;;;;;;;;;;5.23;100.00;100422.47;4956835;29;845;-59
2024/02/28 17:40:45;;;;;;;;;;;;;;;5.35;100.00;100426.28;4956828;29;851;-60
2024/02/28 17:43:11;;;;;;;;;;;;;;;5.48;100.00;100427.81;4956852;29;860;-61
2024/02/28 17:45:38;;;;;;;;;;;;;;;5.55;100.00;100427.19;4956741;29;918;-61
2024/02/28 17:48:06;;;;;;;;;;;;;;;5.57;100.00;100430.38;4956900;29;824;-61
2024/02/28 17:50:35;;;;;;;;;;;;;;;5.49;100.00;100434.91;4954456;29;1226;-61
2024/02/28 17:53:02;;;;;;;;;;;;;;;5.38;100.00;100431.88;4955319;29;898;-60
2024/02/28 17:55:29;;;;;;;;;;;;;;;5.37;100.00;100429.47;4956635;28;1940;-60
2024/02/28 17:57:55;;;;;;;;;;;;;;;5.43;100.00;100431.59;4956587;28;910;-60
2024/02/28 18:00:25;;;;;;;;;;;;;;;5.50;100.00;100434.56;4956606;28;831;-60
2024/02/28 18:02:53;;;;;;;;;;;;;;;5.54;100.00;100429.13;4956642;28;835;-60
2024/02/28 18:05:20;;;;;;;;;;;;;;;5.62;100.00;100430.13;4956465;28;847;-61
2024/02/28 18:07:46;;;;;;;;;;;;;;;5.67;100.00;100429.84;4956289;28;820;-62
2024/02/28 18:10:13;;;;;;;;;;;;;;;5.76;100.00;100430.50;4956362;28;902;-61
2024/02/28 18:12:39;;;;;;;;;;;;;;;5.82;100.00;100431.78;4956254;28;898;-59
2024/02/28 18:15:06;;;;;;;;;;;;;;;5.84;100.00;100434.97;4956126;28;1886;-60
2024/02/28 18:17:36;;;;;;;;;;;;;;;5.88;100.00;100433.13;4956258;28;862;-60
2024/02/28 18:20:07;;;;;;;;;;;;;;;5.95;100.00;100435.25;4956123;28;838;-60
2024/02/28 18:22:34;;;;;;;;;;;;;;;5.99;100.00;100435.34;4956194;28;847;-60
2024/02/28 18:25:01;;;;;;;;;;;;;;;5.95;100.00;100435.25;4955566;28;903;-59
2024/02/28 18:27:28;;;;;;;;;;;;;;;5.89;100.00;100437.47;4956040;28;833;-59
2024/02/28 18:29:54;;;;;;;;;;;;;;;5.95;100.00;100442.69;4956211;28;849;-59
2024/02/28 18:32:21;;;;;;;;;;;;;;;6.00;100.00;100450.69;4956034;28;827;-60
2024/02/28 18:34:48;;;;;;;;;;;;;;;6.03;100.00;100445.25;4955797;28;1891;-60
2024/02/28 18:37:15;;;;;;;;;;;;;;;6.11;100.00;100449.75;4955875;28;811;-60
2024/02/28 18:39:43;;;;;;;;;;;;;;;6.02;100.00;100440.94;4955707;28;902;-60
2024/02/28 18:42:11;;;;;;;;;;;;;;;5.89;100.00;100442.16;4954500;29;882;-60
2024/02/28 18:44:38;;;;;;;;;;;;;;;5.86;100.00;100446.38;4955778;28;831;-61
2024/02/28 18:47:05;;;;;;;;;;;;;;;5.94;100.00;100444.63;4955933;28;975;-60
2024/02/28 18:49:31;;;;;;;;;;;;;;;5.96;100.00;100439.63;4955572;28;1156;-60
2024/02/28 18:51:58;;;;;;;;;;;;;;;5.90;100.00;100446.47;4954336;29;895;-60
2024/02/28 18:54:24;;;;;;;;;;;;;;;5.82;100.00;100453.72;4955496;29;824;-60
2024/02/28 18:56:50;;;;;;;;;;;;;;;5.75;100.00;100463.75;4955415;29;1942;-60
2024/02/28 18:59:17;;;;;;;;;;;;;;;5.60;100.00;100468.06;4955356;29;840;-60
2024/02/28 19:01:45;;;;;;;;;;;;;;;5.51;100.00;100454.53;4938198;29;1182;-61
2024/02/28 19:04:12;;;;;;;;;;;;;;;5.50;100.00;100474.84;4955196;29;867;-61
2024/02/28 19:06:42;;;;;;;;;;;;;;;5.51;100.00;100468.25;4955336;29;903;-61
2024/02/28 19:09:09;;;;;;;;;;;;;;;5.51;100.00;100479.22;4955184;29;815;-60
2024/02/28 19:11:36;;;;;;;;;;;;;;;5.51;100.00;100470.97;4955201;29;899;-60
2024/02/28 19:14:02;;;;;;;;;;;;;;;5.49;100.00;100474.06;4955170;29;886;-60
2024/02/28 19:16:29;;;;;;;;;;;;;;;5.46;100.00;100477.53;4955028;29;1958;-60
2024/02/28 19:18:56;;;;;;;;;;;;;;;5.47;100.00;100481.06;4955068;29;843;-61
2024/02/28 19:21:22;;;;;;;;;;;;;;;5.46;100.00;100484.94;4954906;29;850;-61
2024/02/28 19:23:49;;;;;;;;;;;;;;;5.42;100.00;100484.84;4955016;29;979;-59
2024/02/28 19:26:16;;;;;;;;;;;;;;;5.41;100.00;100483.25;4954818;29;815;-60
2024/02/28 19:28:43;;;;;;;;;;;;;;;5.40;100.00;100489.91;4954896;29;812;-59
2024/02/28 19:31:10;;;;;;;;;;;;;;;5.36;100.00;100491.75;4954902;29;855;-59
2024/02/28 19:33:38;;;;;;;;;;;;;;;5.26;100.00;100497.72;4954984;29;883;-59
2024/02/28 19:36:06;;;;;;;;;;;;;;;5.18;100.00;100502.19;4954069;28;1898;-59
2024/02/28 19:38:33;;;;;;;;;;;;;;;5.15;100.00;100502.13;4954809;29;820;-59
2024/02/28 19:40:59;;;;;;;;;;;;;;;5.16;100.00;100503.69;4954613;29;792;-59
2024/02/28 19:43:26;;;;;;;;;;;;;;;5.13;100.00;100516.16;4954663;29;875;-59
2024/02/28 19:45:52;;;;;;;;;;;;;;;5.14;100.00;100506.00;4954609;29;922;-59
2024/02/28 19:48:17;;;;;;;;;;;;;;;5.18;100.00;100515.09;4954307;29;1331;-59
2024/02/28 19:50:44;;;;;;;;;;;;;;;5.21;100.00;100514.44;4954470;29;803;-59
2024/02/28 19:53:10;;;;;;;;;;;;;;;5.25;100.00;100507.91;4954426;29;875;-59
2024/02/28 19:55:36;;;;;;;;;;;;;;;5.31;100.00;100513.91;4954385;29;1977;-59
2024/02/28 19:58:03;;;;;;;;;;;;;;;5.36;100.00;100516.41;4954470;29;863;-59
2024/02/28 20:00:29;;;;;;;;;;;;;;;5.38;100.00;100514.13;4954279;29;852;-59
2024/02/28 20:02:56;;;;;;;;;;;;;;;5.40;100.00;100511.81;4954516;29;788;-59
2024/02/28 20:05:22;;;;;;;;;;;;;;;5.43;100.00;100513.84;4954314;29;819;-59
2024/02/28 20:07:49;;;;;;;;;;;;;;;5.48;100.00;100516.38;4954033;29;880;-59
2024/02/28 20:10:16;;;;;;;;;;;;;;;5.55;100.00;100512.19;4954211;29;820;-59
2024/02/28 20:12:43;;;;;;;;;;;;;;;5.62;100.00;100499.47;4954272;29;843;-60
2024/02/28 20:15:10;;;;;;;;;;;;;;;5.57;100.00;100518.94;4954093;29;2057;-60
2024/02/28 20:17:36;;;;;;;;;;;;;;;5.42;100.00;100516.94;4954110;29;800;-59
2024/02/28 20:20:03;;;;;;;;;;;;;;;5.35;100.00;100516.75;4954020;29;847;-60
2024/02/28 20:22:30;;;;;;;;;;;;;;;5.22;100.00;100516.81;4953995;29;835;-60
2024/02/28 20:24:56;;;;;;;;;;;;;;;5.15;100.00;100511.13;4953940;29;879;-60
2024/02/28 20:27:23;;;;;;;;;;;;;;;5.02;100.00;100509.59;4953925;29;844;-60
2024/02/28 20:29:50;;;;;;;;;;;;;;;4.94;100.00;100511.31;4953897;29;804;-60
2024/02/28 20:32:17;;;;;;;;;;;;;;;4.83;100.00;100515.69;4953901;29;812;-60
2024/02/28 20:34:46;;;;;;;;;;;;;;;4.79;100.00;100514.78;4953728;29;1894;-61
2024/02/28 20:37:13;;;;;;;;;;;;;;;4.77;100.00;100511.59;4954002;29;875;-60
2024/02/28 20:39:40;;;;;;;;;;;;;;;4.83;100.00;100510.19;4953799;29;899;-61
2024/02/28 20:42:06;;;;;;;;;;;;;;;4.91;100.00;100507.31;4953819;29;930;-60
2024/02/28 20:44:33;;;;;;;;;;;;;;;4.96;100.00;100513.72;4953738;29;901;-60
2024/02/28 20:46:59;;;;;;;;;;;;;;;5.00;100.00;100509.91;4953780;29;1036;-60
2024/02/28 20:49:26;;;;;;;;;;;;;;;5.13;100.00;100507.94;4953585;29;1252;-60
2024/02/28 20:51:56;;;;;;;;;;;;;;;5.22;100.00;100516.00;4953695;29;919;-60
2024/02/28 20:54:23;;;;;;;;;;;;;;;5.25;100.00;100509.84;4953594;29;816;-61
2024/02/28 20:56:50;;;;;;;;;;;;;;;5.12;100.00;100509.06;4953923;29;1911;-60
2024/02/28 20:59:17;;;;;;;;;;;;;;;4.99;100.00;100508.31;4953510;29;919;-60
2024/02/28 21:01:43;;;;;;;;;;;;;;;4.89;100.00;100512.34;4953698;29;807;-61
2024/02/28 21:04:13;;;;;;;;;;;;;;;4.81;100.00;100501.53;4953550;29;815;-60
2024/02/28 21:06:42;;;;;;;;;;;;;;;4.76;100.00;100507.22;4953575;29;835;-60
2024/02/28 21:09:10;;;;;;;;;;;;;;;4.67;100.00;100501.88;4953544;29;870;-60
2024/02/28 21:11:36;;;;;;;;;;;;;;;4.64;100.00;100511.59;4953536;29;871;-60
2024/02/28 21:14:03;;;;;;;;;;;;;;;4.61;100.00;100503.28;4953519;29;870;-60
2024/02/28 21:16:30;;;;;;;;;;;;;;;4.53;100.00;100504.22;4953400;29;1886;-60
2024/02/28 21:18:57;;;;;;;;;;;;;;;4.50;100.00;100505.69;4953358;29;875;-61
2024/02/28 21:21:26;;;;;;;;;;;;;;;4.47;100.00;100498.97;4953650;29;895;-61
2024/02/28 21:23:53;;;;;;;;;;;;;;;4.47;100.00;100501.69;4953746;29;816;-61
2024/02/28 21:26:20;;;;;;;;;;;;;;;4.45;100.00;100501.25;4953701;29;778;-61
2024/02/28 21:28:46;;;;;;;;;;;;;;;4.42;100.00;100512.09;4953350;29;800;-61
2024/02/28 21:31:13;;;;;;;;;;;;;;;4.42;100.00;100512.09;4953285;29;867;-61
2024/02/28 21:33:40;;;;;;;;;;;;;;;4.42;100.00;100509.38;4953331;29;847;-61
2024/02/28 21:36:07;;;;;;;;;;;;;;;4.42;100.00;100504.69;4953098;29;1887;-61
2024/02/28 21:38:35;;;;;;;;;;;;;;;4.35;100.00;100503.66;4953311;29;847;-61
2024/02/28 21:41:01;;;;;;;;;;;;;;;4.38;100.00;100505.72;4953180;29;930;-62
2024/02/28 21:43:28;;;;;;;;;;;;;;;4.45;100.00;100505.94;4953225;29;843;-62
2024/02/28 21:45:54;;;;;;;;;;;;;;;4.49;100.00;100499.41;4953235;29;985;-61
2024/02/28 21:48:20;;;;;;;;;;;;;;;4.48;100.00;100500.56;4952966;29;1296;-61
2024/02/28 21:50:46;;;;;;;;;;;;;;;4.44;100.00;100501.59;4953107;29;828;-61
2024/02/28 21:53:13;;;;;;;;;;;;;;;4.30;100.00;100507.41;4953045;29;863;-61
2024/02/28 21:55:39;;;;;;;;;;;;;;;4.23;100.00;100515.41;4953085;29;1914;-61
2024/02/28 21:58:08;;;;;;;;;;;;;;;4.23;100.00;100510.72;4953062;28;859;-61
2024/02/28 22:00:35;;;;;;;;;;;;;;;4.21;100.00;100517.69;4956386;29;812;-62
2024/02/28 22:03:01;;;;;;;;;;;;;;;4.27;100.00;100521.78;4956722;29;800;-62
2024/02/28 22:05:30;;;;;;;;;;;;;;;4.32;100.00;100527.03;4956378;29;900;-61
2024/02/28 22:07:57;;;;;;;;;;;;;;;4.39;100.00;100526.44;4956328;29;831;-61
2024/02/28 22:10:23;;;;;;;;;;;;;;;4.43;100.00;100524.63;4956306;29;812;-61
2024/02/28 22:12:50;;;;;;;;;;;;;;;4.49;100.00;100526.00;4956236;29;918;-63
2024/02/28 22:15:17;;;;;;;;;;;;;;;4.50;100.00;100528.41;4956093;29;1974;-63
2024/02/28 22:17:44;;;;;;;;;;;;;;;4.45;100.00;100523.13;4956263;29;875;-62
2024/02/28 22:20:10;;;;;;;;;;;;;;;4.37;100.00;100531.47;4955993;29;882;-63
2024/02/28 22:22:37;;;;;;;;;;;;;;;4.30;100.00;100523.84;4956133;29;792;-62
2024/02/28 22:25:04;;;;;;;;;;;;;;;4.29;100.00;100528.53;4956131;29;847;-61
2024/02/28 22:27:30;;;;;;;;;;;;;;;4.28;100.00;100526.91;4956066;29;867;-62
2024/02/28 22:29:57;;;;;;;;;;;;;;;4.26;100.00;100536.59;4956180;29;934;-62
2024/02/28 22:32:24;;;;;;;;;;;;;;;4.24;100.00;100534.19;4956279;29;784;-62
2024/02/28 22:34:50;;;;;;;;;;;;;;;4.30;100.00;100534.78;4955735;29;1950;-61
2024/02/28 22:37:17;;;;;;;;;;;;;;;4.32;100.00;100531.72;4955837;29;871;-62
2024/02/28 22:39:44;;;;;;;;;;;;;;;4.29;100.00;100534.00;4955857;29;811;-63
2024/02/28 22:42:10;;;;;;;;;;;;;;;4.24;100.00;100536.16;4955774;29;847;-62
2024/02/28 22:44:37;;;;;;;;;;;;;;;4.29;100.00;100527.72;4955698;29;895;-61